createdAt,value
2022-10-14T00:00:44.026Z,13.57
2022-10-14T00:03:10.853Z,13.35
2022-10-14T00:05:40.779Z,13.65
2022-10-14T00:08:09.121Z,13.68
2022-10-14T00:10:39.966Z,13.05
2022-10-14T00:13:07.177Z,13.25
2022-10-14T00:15:38.963Z,13.62
2022-10-14T00:18:06.838Z,12.95
2022-10-14T00:20:34.005Z,12.95
2022-10-14T00:23:00.829Z,10.00
2022-10-14T00:25:28.380Z,11.27
2022-10-14T00:27:55.618Z,10.90
2022-10-14T00:30:22.872Z,10.70
2022-10-14T00:32:49.732Z,9.95
2022-10-14T00:35:16.808Z,10.00
2022-10-14T00:37:43.657Z,10.27
2022-10-14T00:40:11.045Z,10.40
2022-10-14T00:42:37.901Z,10.88
2022-10-14T00:45:09.970Z,11.07
2022-10-14T00:47:36.902Z,10.65
2022-10-14T00:50:04.107Z,10.50
2022-10-14T00:52:31.216Z,9.82
2022-10-14T00:55:04.431Z,9.80
2022-10-14T00:57:31.985Z,11.23
2022-10-14T01:00:05.032Z,11.18
2022-10-14T01:02:31.914Z,10.73
2022-10-14T01:05:00.142Z,11.57
2022-10-14T01:07:35.940Z,12.63
2022-10-14T01:10:09.822Z,9.90
2022-10-14T01:13:02.193Z,9.65
2022-10-14T01:15:44.233Z,10.40
2022-10-14T01:18:20.477Z,10.55
2022-10-14T01:20:56.446Z,10.70
2022-10-14T01:23:45.091Z,10.25
2022-10-14T01:26:20.712Z,9.50
2022-10-14T01:28:56.238Z,9.85
2022-10-14T01:31:26.017Z,10.13
2022-10-14T01:33:56.912Z,10.57
2022-10-14T01:36:27.461Z,9.75
2022-10-14T01:38:58.932Z,9.52
2022-10-14T01:41:29.364Z,9.75
2022-10-14T01:43:58.750Z,10.40
2022-10-14T01:46:27.482Z,9.57
2022-10-14T01:49:03.355Z,10.43
2022-10-14T01:51:41.586Z,10.43
2022-10-14T01:54:15.763Z,10.57
2022-10-14T01:56:45.746Z,10.20
2022-10-14T01:59:13.658Z,9.73
2022-10-14T02:01:40.681Z,10.60
2022-10-14T02:04:21.157Z,10.43
2022-10-14T02:07:12.302Z,11.10
2022-10-14T02:09:54.739Z,10.93
2022-10-14T02:12:46.078Z,11.30
2022-10-14T02:15:21.344Z,11.55
2022-10-14T02:18:09.665Z,11.73
2022-10-14T02:21:03.898Z,11.77
2022-10-14T02:23:33.605Z,13.75
2022-10-14T02:26:00.623Z,13.82
2022-10-14T02:28:28.239Z,13.13
2022-10-14T02:31:00.991Z,12.88
2022-10-14T02:33:33.416Z,12.25
2022-10-14T02:36:02.127Z,12.50
2022-10-14T02:38:30.554Z,12.30
2022-10-14T02:40:57.675Z,11.32
2022-10-14T02:43:24.581Z,11.25
2022-10-14T02:45:57.569Z,11.15
2022-10-14T02:48:24.664Z,11.07
2022-10-14T02:50:51.543Z,11.20
2022-10-14T02:53:18.405Z,11.85
2022-10-14T02:55:45.257Z,10.98
2022-10-14T02:58:12.130Z,12.32
2022-10-14T03:00:38.950Z,12.52
2022-10-14T03:03:05.833Z,13.57
2022-10-14T03:05:32.656Z,13.80
2022-10-14T03:07:59.468Z,12.90
2022-10-14T03:10:26.354Z,13.95
2022-10-14T03:12:53.345Z,13.82
2022-10-14T03:15:21.088Z,13.88
2022-10-14T03:17:47.944Z,13.62
2022-10-14T03:20:14.798Z,13.48
2022-10-14T03:22:42.171Z,13.07
2022-10-14T03:25:09.514Z,12.32
2022-10-14T03:27:36.372Z,13.48
2022-10-14T03:30:03.781Z,12.13
2022-10-14T03:32:30.653Z,12.23
2022-10-14T03:34:57.917Z,11.75
2022-10-14T03:37:24.801Z,11.80
2022-10-14T03:39:51.635Z,11.85
2022-10-14T03:42:18.675Z,12.73
2022-10-14T03:44:46.427Z,12.77
2022-10-14T03:47:13.285Z,12.35
2022-10-14T03:49:40.109Z,12.35
2022-10-14T03:52:06.940Z,10.20
2022-10-14T03:54:34.093Z,10.73
2022-10-14T03:57:00.941Z,14.50
2022-10-14T03:59:27.779Z,18.92
2022-10-14T04:01:54.629Z,17.08
2022-10-14T04:04:21.554Z,14.98
2022-10-14T04:06:48.381Z,15.90
2022-10-14T04:09:15.326Z,15.20
2022-10-14T04:11:42.308Z,14.70
2022-10-14T04:14:09.525Z,14.85
2022-10-14T04:16:36.432Z,15.15
2022-10-14T04:19:03.605Z,13.68
2022-10-14T04:21:30.469Z,13.88
2022-10-14T04:23:57.306Z,12.10
2022-10-14T04:26:24.155Z,14.30
2022-10-14T04:28:51.310Z,14.07
2022-10-14T04:31:18.237Z,14.32
2022-10-14T04:33:45.075Z,15.10
2022-10-14T04:36:11.925Z,13.45
2022-10-14T04:38:38.753Z,12.48
2022-10-14T04:41:05.680Z,15.07
2022-10-14T04:43:32.552Z,13.82
2022-10-14T04:45:59.387Z,14.87
2022-10-14T04:48:26.248Z,14.80
2022-10-14T04:50:54.136Z,14.05
2022-10-14T04:53:22.252Z,12.68
2022-10-14T04:55:49.893Z,16.95
2022-10-14T04:58:17.196Z,26.33
2022-10-14T05:00:44.123Z,18.90
2022-10-14T05:03:11.062Z,21.95
2022-10-14T05:05:37.945Z,19.80
2022-10-14T05:08:05.016Z,25.75
2022-10-14T05:10:31.994Z,23.50
2022-10-14T05:12:58.820Z,29.58
2022-10-14T05:15:25.682Z,20.00
2022-10-14T05:17:52.519Z,18.48
2022-10-14T05:20:19.458Z,20.88
2022-10-14T05:22:46.278Z,21.83
2022-10-14T05:25:13.123Z,22.33
2022-10-14T05:27:40.481Z,20.37
2022-10-14T05:30:07.900Z,22.85
2022-10-14T05:32:34.707Z,20.25
2022-10-14T05:35:01.600Z,20.75
2022-10-14T05:37:28.471Z,24.00
2022-10-14T05:39:55.442Z,25.30
2022-10-14T05:42:22.542Z,32.05
2022-10-14T05:44:49.810Z,40.33
2022-10-14T05:47:16.871Z,39.15
2022-10-14T05:49:43.695Z,36.58
2022-10-14T05:52:10.516Z,35.60
2022-10-14T05:54:37.404Z,22.77
2022-10-14T05:57:04.380Z,22.27
2022-10-14T05:59:33.437Z,19.80
2022-10-14T06:02:00.432Z,18.37
2022-10-14T06:04:27.555Z,15.82
2022-10-14T06:06:54.423Z,16.00
2022-10-14T06:09:21.279Z,18.20
2022-10-14T06:11:48.460Z,18.08
2022-10-14T06:14:15.339Z,17.30
2022-10-14T06:16:42.213Z,18.60
2022-10-14T06:19:09.073Z,18.52
2022-10-14T06:21:35.864Z,19.42
2022-10-14T06:24:02.703Z,21.85
2022-10-14T06:26:29.531Z,21.87
2022-10-14T06:28:56.481Z,27.73
2022-10-14T06:31:23.389Z,27.87
2022-10-14T06:33:50.384Z,33.08
2022-10-14T06:36:17.289Z,33.13
2022-10-14T06:38:44.153Z,30.45
2022-10-14T06:41:11.222Z,29.15
2022-10-14T06:43:38.242Z,26.83
2022-10-14T06:46:05.724Z,26.15
2022-10-14T06:48:32.596Z,19.35
2022-10-14T06:51:00.372Z,19.30
2022-10-14T06:53:27.982Z,19.17
2022-10-14T06:56:01.945Z,20.52
2022-10-14T06:58:29.221Z,18.23
2022-10-14T07:03:27.977Z,18.17
2022-10-14T07:05:54.963Z,15.77
2022-10-14T07:08:21.802Z,13.20
2022-10-14T07:10:48.787Z,13.48
2022-10-14T07:13:15.613Z,13.25
2022-10-14T07:15:42.561Z,12.55
2022-10-14T07:18:09.399Z,12.82
2022-10-14T07:20:36.310Z,13.27
2022-10-14T07:23:03.206Z,13.68
2022-10-14T07:25:30.046Z,12.23
2022-10-14T07:27:56.944Z,11.77
2022-10-14T07:30:23.891Z,12.00
2022-10-14T07:32:50.751Z,13.35
2022-10-14T07:35:19.149Z,13.15
2022-10-14T07:37:46.647Z,11.75
2022-10-14T07:40:14.161Z,12.63
2022-10-14T07:42:41.067Z,13.45
2022-10-14T07:45:08.497Z,14.43
2022-10-14T07:47:35.401Z,14.68
2022-10-14T07:50:02.378Z,14.65
2022-10-14T07:52:29.205Z,15.93
2022-10-14T07:54:56.071Z,14.65
2022-10-14T07:57:24.097Z,14.45
2022-10-14T07:59:52.774Z,15.82
2022-10-14T08:02:19.778Z,15.02
2022-10-14T08:04:47.018Z,15.10
2022-10-14T08:07:16.638Z,15.98
2022-10-14T08:09:43.705Z,14.68
2022-10-14T08:12:10.699Z,15.13
2022-10-14T08:14:37.920Z,14.87
2022-10-14T08:17:04.959Z,15.20
2022-10-14T08:19:32.095Z,15.02
2022-10-14T08:21:59.195Z,15.20
2022-10-14T08:24:26.098Z,15.07
2022-10-14T08:26:55.166Z,15.02
2022-10-14T08:29:25.753Z,14.18
2022-10-14T08:31:54.335Z,13.60
2022-10-14T08:34:21.966Z,15.30
2022-10-14T08:36:49.143Z,14.30
2022-10-14T08:39:19.444Z,14.35
2022-10-14T08:42:00.678Z,14.45
2022-10-14T08:44:34.564Z,14.10
2022-10-14T08:47:03.134Z,14.20
2022-10-14T08:49:35.879Z,14.18
2022-10-14T08:52:13.013Z,14.55
2022-10-14T08:54:42.149Z,13.35
2022-10-14T08:57:15.056Z,13.00
2022-10-14T08:59:42.634Z,13.88
2022-10-14T09:02:25.729Z,13.60
2022-10-14T09:04:52.570Z,13.55
2022-10-14T09:07:20.267Z,12.65
2022-10-14T09:10:08.289Z,13.38
2022-10-14T09:12:36.053Z,12.93
2022-10-14T09:15:19.818Z,12.80
2022-10-14T09:17:52.903Z,13.57
2022-10-14T09:20:22.455Z,12.55
2022-10-14T09:23:19.537Z,12.98
2022-10-14T09:25:59.031Z,12.50
2022-10-14T09:28:40.761Z,13.50
2022-10-14T09:31:11.568Z,12.95
2022-10-14T09:33:42.628Z,12.25
2022-10-14T09:36:17.673Z,11.77
2022-10-14T09:38:47.485Z,12.00
2022-10-14T09:41:16.821Z,12.55
2022-10-14T09:44:23.948Z,12.52
2022-10-14T09:46:54.206Z,11.27
2022-10-14T09:49:29.954Z,12.63
2022-10-14T09:51:57.790Z,11.77
2022-10-14T09:54:26.684Z,11.38
2022-10-14T09:57:05.571Z,12.37
2022-10-14T09:59:32.858Z,11.88
2022-10-14T10:02:02.144Z,11.30
2022-10-14T10:04:31.952Z,10.93
2022-10-14T10:07:00.713Z,11.73
2022-10-14T10:09:27.933Z,10.55
2022-10-14T10:11:55.410Z,9.80
2022-10-14T10:14:30.849Z,10.20
2022-10-14T10:17:10.102Z,10.23
2022-10-14T10:19:44.867Z,10.50
2022-10-14T10:22:26.733Z,9.77
2022-10-14T10:25:03.653Z,10.15
2022-10-14T10:27:36.733Z,9.57
2022-10-14T10:30:21.708Z,9.00
2022-10-14T10:32:57.198Z,9.00
2022-10-14T10:36:04.327Z,9.82
2022-10-14T10:39:19.075Z,9.57
2022-10-14T10:42:08.243Z,9.80
2022-10-14T10:44:49.636Z,9.48
2022-10-14T10:47:47.792Z,7.72
2022-10-14T10:50:42.605Z,9.75
2022-10-14T10:53:33.902Z,8.65
2022-10-14T10:56:07.364Z,9.70
2022-10-14T10:58:57.802Z,9.00
2022-10-14T11:04:33.688Z,7.93
2022-10-14T11:07:47.862Z,8.85
2022-10-14T11:18:00.967Z,8.55
2022-10-14T11:24:46.282Z,8.57
2022-10-14T11:33:27.920Z,9.05
2022-10-14T11:36:03.685Z,9.07
2022-10-14T11:41:18.987Z,9.23
2022-10-14T11:44:12.613Z,8.95
2022-10-14T11:46:43.174Z,9.85
2022-10-14T11:49:22.729Z,9.50
2022-10-14T11:52:00.058Z,10.05
2022-10-14T11:54:35.652Z,10.20
2022-10-14T11:57:20.443Z,10.77
2022-10-14T11:59:56.043Z,11.07
2022-10-14T12:02:45.077Z,12.85
2022-10-14T12:05:35.237Z,12.00
2022-10-14T12:08:17.344Z,11.98
2022-10-14T12:11:19.534Z,12.23
2022-10-14T12:13:57.222Z,14.15
2022-10-14T12:16:29.299Z,12.32
2022-10-14T12:19:02.174Z,12.32
2022-10-14T12:21:41.042Z,11.88
2022-10-14T12:24:14.123Z,11.10
2022-10-14T12:26:57.187Z,11.98
2022-10-14T12:29:43.338Z,11.93
2022-10-14T12:32:26.410Z,11.48
2022-10-14T12:35:01.549Z,12.63
2022-10-14T12:37:35.480Z,13.45
2022-10-14T12:40:02.610Z,12.90
2022-10-14T12:42:35.452Z,13.90
2022-10-14T12:45:04.769Z,14.25
2022-10-14T12:47:38.635Z,13.02
2022-10-14T12:50:27.359Z,12.35
2022-10-14T12:53:06.782Z,11.57
2022-10-14T12:55:48.006Z,12.82
2022-10-14T12:58:41.480Z,13.93
2022-10-14T13:01:19.995Z,11.95
2022-10-14T13:03:54.384Z,12.00
2022-10-14T13:06:39.461Z,13.52
2022-10-14T13:09:12.764Z,13.10
2022-10-14T13:11:59.498Z,13.45
2022-10-14T13:14:30.029Z,14.30
2022-10-14T13:17:00.885Z,14.15
2022-10-14T13:19:33.672Z,14.63
2022-10-14T13:22:02.321Z,10.73
2022-10-14T13:24:32.116Z,14.30
2022-10-14T13:27:30.924Z,13.85
2022-10-14T13:30:08.163Z,13.85
2022-10-14T13:32:50.300Z,14.73
2022-10-14T13:35:31.340Z,13.57
2022-10-14T13:38:05.395Z,13.88
2022-10-14T13:40:35.515Z,13.70
2022-10-14T13:43:28.785Z,13.32
2022-10-14T13:46:00.492Z,15.40
2022-10-14T13:48:51.022Z,14.55
2022-10-14T13:51:45.023Z,15.43
2022-10-14T13:54:16.158Z,14.85
2022-10-14T13:56:43.431Z,14.45
2022-10-14T13:59:44.400Z,13.05
2022-10-14T14:02:25.839Z,14.50
2022-10-14T14:04:55.809Z,15.20
2022-10-14T14:07:47.805Z,15.20
2022-10-14T14:10:12.797Z,14.73
2022-10-14T14:12:42.864Z,15.75
2022-10-14T14:15:19.274Z,14.43
2022-10-14T14:17:46.079Z,14.20
2022-10-14T14:20:12.938Z,15.60
2022-10-14T14:22:46.317Z,16.02
2022-10-14T14:25:46.763Z,15.77
2022-10-14T14:28:13.822Z,15.98
2022-10-14T14:30:40.659Z,15.10
2022-10-14T14:33:11.461Z,15.32
2022-10-14T14:35:38.351Z,15.63
2022-10-14T14:38:05.185Z,14.20
2022-10-14T14:40:32.242Z,15.85
2022-10-14T14:43:01.338Z,15.63
2022-10-14T14:45:30.981Z,15.40
2022-10-14T14:47:59.302Z,17.58
2022-10-14T14:50:36.399Z,16.62
2022-10-14T14:53:06.903Z,16.70
2022-10-14T14:55:37.669Z,17.27
2022-10-14T14:58:06.889Z,17.70
2022-10-14T15:00:33.762Z,17.00
2022-10-14T15:03:02.339Z,16.17
2022-10-14T15:05:30.121Z,15.75
2022-10-14T15:07:57.230Z,16.90
2022-10-14T15:10:29.867Z,18.70
2022-10-14T15:12:58.540Z,18.48
2022-10-14T15:15:32.408Z,17.12
2022-10-14T15:18:20.562Z,16.73
2022-10-14T15:20:49.547Z,16.58
2022-10-14T15:23:50.598Z,17.48
2022-10-14T15:26:22.926Z,18.17
2022-10-14T15:29:14.865Z,18.27
2022-10-14T15:31:47.669Z,17.70
2022-10-14T15:34:22.635Z,18.77
2022-10-14T15:36:51.202Z,19.17
2022-10-14T15:39:18.602Z,20.00
2022-10-14T15:41:48.068Z,20.12
2022-10-14T15:44:15.252Z,19.12
2022-10-14T15:47:02.304Z,18.73
2022-10-14T15:49:32.033Z,20.42
2022-10-14T15:51:59.013Z,20.45
2022-10-14T15:54:27.759Z,23.02
2022-10-14T15:59:27.796Z,25.52
2022-10-14T16:01:54.870Z,31.92
2022-10-14T16:04:24.979Z,39.42
2022-10-14T16:06:55.386Z,39.92
2022-10-14T16:09:27.827Z,37.30
2022-10-14T16:11:57.650Z,42.28
2022-10-14T16:14:25.412Z,36.30
2022-10-14T16:16:52.263Z,35.80
2022-10-14T16:19:19.813Z,34.95
2022-10-14T16:21:48.029Z,27.37
2022-10-14T16:24:20.443Z,35.72
2022-10-14T16:26:51.446Z,40.08
2022-10-14T16:29:19.732Z,38.42
2022-10-14T16:31:50.313Z,36.90
2022-10-14T16:34:21.262Z,36.08
2022-10-14T16:36:51.406Z,33.30
2022-10-14T16:39:19.544Z,33.55
2022-10-14T16:41:46.539Z,37.92
2022-10-14T16:44:33.655Z,38.13
2022-10-14T16:47:20.330Z,51.28
2022-10-14T16:49:49.367Z,58.22
2022-10-14T16:52:16.570Z,54.95
2022-10-14T16:54:43.445Z,37.58
2022-10-14T16:57:10.821Z,46.42
2022-10-14T16:59:37.737Z,52.78
2022-10-14T17:02:05.257Z,53.15
2022-10-14T17:04:32.134Z,44.35
2022-10-14T17:06:59.046Z,40.05
2022-10-14T17:11:57.542Z,46.20
2022-10-14T17:14:24.425Z,44.92
2022-10-14T17:16:52.661Z,42.05
2022-10-14T17:19:19.984Z,38.63
2022-10-14T17:21:47.457Z,32.63
2022-10-14T17:24:15.222Z,31.17
2022-10-14T17:26:42.044Z,25.35
2022-10-14T17:29:08.917Z,21.17
2022-10-14T17:31:38.005Z,18.90
2022-10-14T17:34:05.195Z,18.17
2022-10-14T17:36:32.085Z,18.27
2022-10-14T17:38:59.463Z,18.42
2022-10-14T17:41:28.903Z,18.40
2022-10-14T17:43:57.892Z,17.45
2022-10-14T17:46:26.327Z,17.95
2022-10-14T17:48:56.319Z,16.85
2022-10-14T17:51:25.615Z,17.73
2022-10-14T17:53:57.184Z,17.40
2022-10-14T17:56:24.939Z,19.10
2022-10-14T17:58:54.949Z,17.65
2022-10-14T18:01:36.705Z,18.00
2022-10-14T18:04:09.297Z,17.87
2022-10-14T18:06:37.605Z,18.55
2022-10-14T18:09:08.107Z,19.40
2022-10-14T18:12:07.191Z,19.25
2022-10-14T18:14:27.678Z,17.73
2022-10-14T18:16:54.522Z,17.83
2022-10-14T18:19:21.412Z,18.08
2022-10-14T18:21:48.307Z,17.20
2022-10-14T18:24:15.184Z,17.80
2022-10-14T18:26:42.150Z,17.25
2022-10-14T18:29:09.422Z,17.77
2022-10-14T18:31:36.920Z,17.00
2022-10-14T18:34:03.875Z,18.30
2022-10-14T18:36:33.259Z,17.33
2022-10-14T18:39:03.164Z,17.80
2022-10-14T18:41:30.905Z,16.83
2022-10-14T18:44:00.415Z,18.05
2022-10-14T18:46:29.874Z,20.77
2022-10-14T18:48:58.092Z,22.15
2022-10-14T18:51:29.499Z,24.17
2022-10-14T18:53:58.357Z,25.52
2022-10-14T18:56:28.072Z,22.80
2022-10-14T18:58:57.842Z,27.10
2022-10-14T19:01:26.520Z,22.40
2022-10-14T19:03:54.154Z,23.33
2022-10-14T19:06:21.588Z,30.60
2022-10-14T19:08:48.968Z,38.17
2022-10-14T19:11:20.429Z,34.97
2022-10-14T19:13:48.748Z,35.35
2022-10-14T19:16:21.534Z,34.28
2022-10-14T19:18:52.970Z,37.40
2022-10-14T19:21:22.332Z,43.17
2022-10-14T19:23:50.222Z,46.88
2022-10-14T19:26:22.137Z,46.75
2022-10-14T19:28:50.058Z,49.30
2022-10-14T19:31:22.968Z,46.75
2022-10-14T19:33:49.863Z,40.30
2022-10-14T19:36:18.306Z,46.72
2022-10-14T19:38:52.363Z,49.45
2022-10-14T19:41:19.314Z,65.18
2022-10-14T19:43:46.162Z,60.80
2022-10-14T19:46:14.503Z,59.22
2022-10-14T19:48:41.791Z,53.97
2022-10-14T19:51:12.052Z,53.38
2022-10-14T19:53:39.353Z,50.30
2022-10-14T19:56:11.980Z,59.47
2022-10-14T19:58:42.317Z,34.25
2022-10-14T20:01:16.883Z,30.20
2022-10-14T20:03:44.097Z,41.50
2022-10-14T20:06:12.265Z,46.15
2022-10-14T20:08:39.680Z,55.33
2022-10-14T20:11:08.441Z,42.88
2022-10-14T20:13:35.593Z,38.05
2022-10-14T20:16:02.722Z,43.67
2022-10-14T20:18:30.250Z,38.00
2022-10-14T20:20:57.478Z,26.83
2022-10-14T20:23:25.414Z,22.87
2022-10-14T20:25:52.313Z,19.77
2022-10-14T20:28:19.865Z,18.55
2022-10-14T20:30:48.071Z,18.33
2022-10-14T20:33:15.252Z,17.83
2022-10-14T20:35:42.063Z,26.67
2022-10-14T20:38:08.900Z,24.08
2022-10-14T20:40:35.928Z,23.33
2022-10-14T20:43:04.065Z,22.15
2022-10-14T20:45:30.978Z,26.15
2022-10-14T20:47:57.798Z,22.75
2022-10-14T20:50:24.640Z,21.50
2022-10-14T20:52:51.476Z,18.90
2022-10-14T20:55:18.338Z,20.27
2022-10-14T20:57:45.204Z,21.33
2022-10-14T21:00:12.767Z,23.25
2022-10-14T21:02:39.699Z,21.67
2022-10-14T21:05:06.837Z,22.30
2022-10-14T21:07:33.678Z,22.40
2022-10-14T21:10:00.978Z,21.17
2022-10-14T21:12:27.831Z,19.15
2022-10-14T21:14:54.690Z,19.80
2022-10-14T21:17:21.519Z,18.92
2022-10-14T21:19:49.081Z,18.37
2022-10-14T21:22:15.963Z,17.42
2022-10-14T21:24:42.881Z,17.35
2022-10-14T21:27:09.944Z,16.45
2022-10-14T21:29:36.857Z,17.70
2022-10-14T21:32:03.915Z,17.58
2022-10-14T21:34:30.762Z,19.25
2022-10-14T21:36:57.698Z,20.27
2022-10-14T21:39:24.641Z,17.70
2022-10-14T21:41:52.258Z,20.25
2022-10-14T21:44:20.817Z,20.92
2022-10-14T21:46:47.907Z,20.17
2022-10-14T21:49:15.933Z,21.10
2022-10-14T21:51:42.826Z,21.62
2022-10-14T21:54:12.393Z,20.35
2022-10-14T21:56:39.608Z,19.27
2022-10-14T21:59:06.911Z,19.05
2022-10-14T22:01:33.828Z,17.85
2022-10-14T22:04:05.944Z,16.87
2022-10-14T22:06:34.341Z,16.58
2022-10-14T22:09:02.781Z,16.95
2022-10-14T22:11:32.908Z,17.58
2022-10-14T22:14:01.516Z,17.52
2022-10-14T22:16:29.399Z,18.40
2022-10-14T22:18:59.060Z,18.37
2022-10-14T22:21:27.117Z,17.02
2022-10-14T22:23:54.294Z,17.27
2022-10-14T22:26:23.779Z,15.05
2022-10-14T22:28:57.423Z,16.60
2022-10-14T22:31:24.575Z,14.93
2022-10-14T22:33:51.424Z,15.30
2022-10-14T22:36:24.375Z,15.40
2022-10-14T22:38:52.807Z,14.80
2022-10-14T22:41:19.849Z,15.63
2022-10-14T22:43:51.774Z,15.77
2022-10-14T22:46:20.559Z,16.98
2022-10-14T22:48:48.862Z,16.08
2022-10-14T22:51:18.001Z,14.70
2022-10-14T22:53:45.740Z,15.63
2022-10-14T22:56:15.533Z,14.82
2022-10-14T22:58:42.558Z,15.82
2022-10-14T23:01:11.980Z,15.95
2022-10-14T23:03:38.862Z,14.95
2022-10-14T23:06:07.535Z,15.98
2022-10-14T23:08:35.445Z,17.60
2022-10-14T23:11:03.327Z,18.30
2022-10-14T23:13:30.412Z,17.55
2022-10-14T23:16:05.381Z,18.50
2022-10-14T23:18:34.768Z,19.73
2022-10-14T23:21:13.174Z,18.50
2022-10-14T23:23:40.414Z,19.35
2022-10-14T23:26:11.544Z,18.05
2022-10-14T23:28:38.752Z,16.75
2022-10-14T23:31:13.830Z,17.08
2022-10-14T23:33:40.847Z,16.25
2022-10-14T23:36:10.367Z,15.23
2022-10-14T23:38:37.905Z,14.18
2022-10-14T23:41:05.947Z,13.02
2022-10-14T23:43:33.173Z,13.50
2022-10-14T23:46:01.030Z,14.82
2022-10-14T23:48:28.133Z,14.98
2022-10-14T23:50:55.433Z,14.57
2022-10-14T23:53:22.699Z,13.82
2022-10-14T23:55:49.541Z,15.48
2022-10-14T23:58:16.466Z,14.43
